createdAt,value
2023-02-24T00:00:20.061Z,5.8
2023-02-24T00:01:20.928Z,5.8
2023-02-24T00:02:21.710Z,5.8
2023-02-24T00:03:22.037Z,5.8
2023-02-24T00:04:22.245Z,5.8
2023-02-24T00:05:22.513Z,5.8
2023-02-24T00:06:22.724Z,5.8
2023-02-24T00:07:22.888Z,5.7
2023-02-24T00:08:23.072Z,5.7
2023-02-24T00:09:23.233Z,5.7
2023-02-24T00:10:23.397Z,5.7
2023-02-24T00:11:23.566Z,5.7
2023-02-24T00:12:23.719Z,5.7
2023-02-24T00:13:23.872Z,5.7
2023-02-24T00:14:24.026Z,5.7
2023-02-24T00:15:24.176Z,5.7
2023-02-24T00:16:24.590Z,5.7
2023-02-24T00:17:25.105Z,5.6
2023-02-24T00:18:25.303Z,5.6
2023-02-24T00:19:25.480Z,5.6
2023-02-24T00:20:25.645Z,5.6
2023-02-24T00:21:25.819Z,5.6
2023-02-24T00:22:25.968Z,5.6
2023-02-24T00:23:26.125Z,5.6
2023-02-24T00:24:26.308Z,5.6
2023-02-24T00:25:26.482Z,5.6
2023-02-24T00:26:26.666Z,5.6
2023-02-24T00:27:26.812Z,5.5
2023-02-24T00:28:26.964Z,5.5
2023-02-24T00:29:27.142Z,5.5
2023-02-24T00:30:27.299Z,5.5
2023-02-24T00:31:27.734Z,5.5
2023-02-24T00:32:28.664Z,5.5
2023-02-24T00:33:29.172Z,5.5
2023-02-24T00:34:29.332Z,5.5
2023-02-24T00:35:29.492Z,5.5
2023-02-24T00:36:29.647Z,5.5
2023-02-24T00:37:29.846Z,5.4
2023-02-24T00:38:30.011Z,5.4
2023-02-24T00:39:30.210Z,5.4
2023-02-24T00:40:30.676Z,5.4
2023-02-24T00:41:31.022Z,5.4
2023-02-24T00:42:31.214Z,5.4
2023-02-24T00:43:31.359Z,5.4
2023-02-24T00:44:31.524Z,5.4
2023-02-24T00:45:31.681Z,5.4
2023-02-24T00:46:31.986Z,5.4
2023-02-24T00:47:32.182Z,5.3
2023-02-24T00:48:32.340Z,5.3
2023-02-24T00:49:32.607Z,5.3
2023-02-24T00:50:32.781Z,5.3
2023-02-24T00:51:32.961Z,5.3
2023-02-24T00:52:33.115Z,5.3
2023-02-24T00:53:33.300Z,5.3
2023-02-24T00:54:33.466Z,5.3
2023-02-24T00:55:33.636Z,5.3
2023-02-24T00:56:33.792Z,5.3
2023-02-24T00:57:33.951Z,5.3
2023-02-24T00:58:34.099Z,5.3
2023-02-24T00:59:34.260Z,5.3
2023-02-24T01:00:34.415Z,5.3
2023-02-24T01:01:34.634Z,5.3
2023-02-24T01:02:34.887Z,5.3
2023-02-24T01:03:35.166Z,5.3
2023-02-24T01:04:35.378Z,5.3
2023-02-24T01:05:35.543Z,5.3
2023-02-24T01:06:35.706Z,5.3
2023-02-24T01:07:35.868Z,5.2
2023-02-24T01:08:36.019Z,5.2
2023-02-24T01:09:36.175Z,5.2
2023-02-24T01:10:36.370Z,5.2
2023-02-24T01:11:36.592Z,5.2
2023-02-24T01:12:36.781Z,5.2
2023-02-24T01:13:36.960Z,5.2
2023-02-24T01:14:37.121Z,5.2
2023-02-24T01:15:37.296Z,5.2
2023-02-24T01:16:37.445Z,5.2
2023-02-24T01:17:37.628Z,5.1
2023-02-24T01:18:37.829Z,5.1
2023-02-24T01:19:37.993Z,5.1
2023-02-24T01:20:38.153Z,5.1
2023-02-24T01:21:38.302Z,5.1
2023-02-24T01:22:38.499Z,5.1
2023-02-24T01:23:38.663Z,5.1
2023-02-24T01:24:38.823Z,5.1
2023-02-24T01:25:38.992Z,5.1
2023-02-24T01:26:39.160Z,5.1
2023-02-24T01:27:39.313Z,5
2023-02-24T01:28:39.472Z,5
2023-02-24T01:29:40.002Z,5
2023-02-24T01:30:40.177Z,5
2023-02-24T01:31:40.718Z,5
2023-02-24T01:32:41.536Z,5
2023-02-24T01:33:41.926Z,5
2023-02-24T01:34:42.093Z,5
2023-02-24T01:35:42.250Z,5
2023-02-24T01:36:42.402Z,5
2023-02-24T01:37:42.551Z,4.9
2023-02-24T01:38:42.705Z,4.9
2023-02-24T01:39:42.861Z,4.9
2023-02-24T01:40:43.016Z,4.9
2023-02-24T01:41:43.177Z,4.9
2023-02-24T01:42:43.327Z,4.9
2023-02-24T01:43:43.480Z,4.9
2023-02-24T01:44:43.862Z,4.9
2023-02-24T01:45:44.200Z,4.9
2023-02-24T01:46:44.433Z,4.9
2023-02-24T01:47:44.740Z,4.9
2023-02-24T01:48:44.890Z,4.9
2023-02-24T01:49:45.074Z,4.9
2023-02-24T01:50:45.257Z,4.9
2023-02-24T01:51:45.438Z,4.9
2023-02-24T01:52:45.595Z,4.9
2023-02-24T01:53:45.750Z,4.9
2023-02-24T01:54:45.898Z,4.9
2023-02-24T01:55:46.065Z,4.9
2023-02-24T01:56:46.217Z,4.9
2023-02-24T01:57:46.411Z,4.8
2023-02-24T01:58:46.568Z,4.8
2023-02-24T01:59:46.720Z,4.8
2023-02-24T02:00:46.898Z,4.8
2023-02-24T02:01:47.391Z,4.8
2023-02-24T02:02:48.093Z,4.8
2023-02-24T02:03:48.385Z,4.8
2023-02-24T02:04:48.539Z,4.8
2023-02-24T02:05:48.896Z,4.8
2023-02-24T02:06:49.095Z,4.8
2023-02-24T02:07:49.254Z,4.69
2023-02-24T02:08:49.413Z,4.69
2023-02-24T02:09:49.570Z,4.69
2023-02-24T02:10:49.724Z,4.69
2023-02-24T02:11:49.898Z,4.69
2023-02-24T02:12:50.069Z,4.69
2023-02-24T02:13:50.537Z,4.69
2023-02-24T02:14:50.913Z,4.69
2023-02-24T02:15:51.138Z,4.69
2023-02-24T02:16:51.332Z,4.69
2023-02-24T02:17:51.537Z,4.6
2023-02-24T02:18:51.699Z,4.6
2023-02-24T02:19:51.855Z,4.6
2023-02-24T02:20:52.006Z,4.6
2023-02-24T02:21:52.154Z,4.6
2023-02-24T02:22:52.314Z,4.6
2023-02-24T02:23:52.477Z,4.6
2023-02-24T02:24:52.626Z,4.6
2023-02-24T02:25:52.773Z,4.6
2023-02-24T02:26:52.926Z,4.6
2023-02-24T02:27:53.080Z,4.6
2023-02-24T02:28:53.230Z,4.6
2023-02-24T02:29:53.397Z,4.6
2023-02-24T02:30:53.626Z,4.6
2023-02-24T02:31:54.014Z,4.6
2023-02-24T02:32:54.454Z,4.6
2023-02-24T02:33:54.733Z,4.6
2023-02-24T02:34:54.896Z,4.6
2023-02-24T02:35:55.045Z,4.6
2023-02-24T02:36:55.201Z,4.6
2023-02-24T02:37:55.386Z,4.5
2023-02-24T02:38:55.543Z,4.5
2023-02-24T02:39:55.703Z,4.5
2023-02-24T02:40:55.876Z,4.5
2023-02-24T02:41:56.046Z,4.5
2023-02-24T02:42:56.203Z,4.5
2023-02-24T02:43:56.357Z,4.5
2023-02-24T02:44:56.540Z,4.5
2023-02-24T02:45:56.757Z,4.5
2023-02-24T02:46:56.995Z,4.5
2023-02-24T02:47:57.161Z,4.4
2023-02-24T02:48:57.312Z,4.4
2023-02-24T02:49:57.469Z,4.4
2023-02-24T02:50:57.640Z,4.4
2023-02-24T02:51:57.793Z,4.4
2023-02-24T02:52:57.958Z,4.4
2023-02-24T02:53:58.133Z,4.4
2023-02-24T02:54:58.294Z,4.4
2023-02-24T02:55:58.462Z,4.4
2023-02-24T02:56:58.614Z,4.4
2023-02-24T02:57:58.774Z,4.3
2023-02-24T02:58:58.935Z,4.3
2023-02-24T02:59:59.144Z,4.3
2023-02-24T03:00:59.424Z,4.3
2023-02-24T03:01:59.635Z,4.3
2023-02-24T03:02:59.783Z,4.3
2023-02-24T03:03:59.928Z,4.3
2023-02-24T03:05:00.280Z,4.3
2023-02-24T03:06:00.620Z,4.3
2023-02-24T03:07:00.826Z,4.3
2023-02-24T03:08:00.982Z,4.3
2023-02-24T03:09:01.174Z,4.3
2023-02-24T03:10:01.340Z,4.3
2023-02-24T03:11:01.498Z,4.3
2023-02-24T03:12:01.663Z,4.3
2023-02-24T03:13:01.813Z,4.3
2023-02-24T03:14:01.961Z,4.3
2023-02-24T03:15:02.202Z,4.3
2023-02-24T03:16:02.375Z,4.3
2023-02-24T03:17:02.533Z,4.3
2023-02-24T03:18:02.740Z,4.3
2023-02-24T03:19:03.146Z,4.3
2023-02-24T03:20:03.307Z,4.3
2023-02-24T03:21:03.493Z,4.3
2023-02-24T03:22:03.667Z,4.3
2023-02-24T03:23:03.823Z,4.3
2023-02-24T03:24:03.993Z,4.3
2023-02-24T03:25:04.165Z,4.3
2023-02-24T03:26:04.345Z,4.3
2023-02-24T03:27:04.503Z,4.3
2023-02-24T03:28:04.648Z,4.4
2023-02-24T03:29:04.805Z,4.4
2023-02-24T03:30:04.952Z,4.4
2023-02-24T03:31:05.188Z,4.4
2023-02-24T03:32:05.787Z,4.4
2023-02-24T03:33:06.216Z,4.4
2023-02-24T03:34:06.388Z,4.4
2023-02-24T03:35:06.562Z,4.4
2023-02-24T03:36:06.726Z,4.4
2023-02-24T03:37:06.902Z,4.4
2023-02-24T03:38:07.084Z,4.5
2023-02-24T03:39:07.263Z,4.5
2023-02-24T03:40:07.423Z,4.5
2023-02-24T03:41:07.608Z,4.5
2023-02-24T03:42:07.806Z,4.5
2023-02-24T03:43:08.045Z,4.5
2023-02-24T03:44:08.203Z,4.5
2023-02-24T03:45:08.360Z,4.5
2023-02-24T03:46:08.655Z,4.5
2023-02-24T03:47:09.014Z,4.5
2023-02-24T03:48:09.180Z,4.5
2023-02-24T03:49:09.376Z,4.5
2023-02-24T03:50:09.532Z,4.5
2023-02-24T03:51:09.676Z,4.5
2023-02-24T03:52:09.832Z,4.5
2023-02-24T03:53:10.063Z,4.5
2023-02-24T03:54:10.327Z,4.5
2023-02-24T03:55:10.484Z,4.5
2023-02-24T03:56:10.646Z,4.5
2023-02-24T03:57:10.848Z,4.5
2023-02-24T03:58:11.009Z,4.5
2023-02-24T03:59:11.162Z,4.5
2023-02-24T04:00:11.318Z,4.5
2023-02-24T04:01:11.463Z,4.5
2023-02-24T04:02:11.698Z,4.5
2023-02-24T04:03:11.922Z,4.5
2023-02-24T04:04:12.087Z,4.5
2023-02-24T04:05:12.249Z,4.5
2023-02-24T04:06:12.433Z,4.5
2023-02-24T04:07:12.630Z,4.5
2023-02-24T04:08:12.809Z,4.5
2023-02-24T04:09:12.997Z,4.5
2023-02-24T04:10:13.206Z,4.5
2023-02-24T04:11:13.386Z,4.5
2023-02-24T04:12:13.794Z,4.5
2023-02-24T04:13:14.112Z,4.5
2023-02-24T04:14:14.264Z,4.5
2023-02-24T04:15:14.408Z,4.5
2023-02-24T04:16:14.697Z,4.5
2023-02-24T04:17:14.936Z,4.5
2023-02-24T04:18:15.159Z,4.5
2023-02-24T04:19:15.596Z,4.5
2023-02-24T04:20:15.799Z,4.5
2023-02-24T04:21:15.981Z,4.5
2023-02-24T04:22:16.126Z,4.5
2023-02-24T04:23:16.286Z,4.5
2023-02-24T04:24:16.477Z,4.5
2023-02-24T04:25:16.637Z,4.5
2023-02-24T04:26:16.803Z,4.5
2023-02-24T04:27:16.986Z,4.5
2023-02-24T04:28:17.142Z,4.5
2023-02-24T04:29:17.301Z,4.5
2023-02-24T04:30:17.491Z,4.5
2023-02-24T04:31:18.050Z,4.5
2023-02-24T04:32:18.709Z,4.5
2023-02-24T04:33:19.139Z,4.5
2023-02-24T04:34:19.309Z,4.5
2023-02-24T04:35:19.482Z,4.5
2023-02-24T04:36:19.776Z,4.5
2023-02-24T04:37:19.956Z,4.6
2023-02-24T04:38:20.114Z,4.6
2023-02-24T04:39:20.285Z,4.6
2023-02-24T04:40:20.450Z,4.6
2023-02-24T04:41:21.974Z,4.6
2023-02-24T04:42:22.710Z,4.6
2023-02-24T04:43:22.869Z,4.6
2023-02-24T04:44:23.061Z,4.6
2023-02-24T04:45:23.228Z,4.6
2023-02-24T04:46:23.740Z,4.6
2023-02-24T04:47:23.982Z,4.6
2023-02-24T04:48:24.154Z,4.6
2023-02-24T04:49:24.341Z,4.6
2023-02-24T04:50:24.490Z,4.6
2023-02-24T04:51:24.644Z,4.6
2023-02-24T04:52:24.803Z,4.6
2023-02-24T04:53:24.952Z,4.6
2023-02-24T04:54:25.109Z,4.6
2023-02-24T04:55:25.302Z,4.6
2023-02-24T04:56:25.483Z,4.6
2023-02-24T04:57:25.633Z,4.6
2023-02-24T04:58:25.790Z,4.6
2023-02-24T04:59:25.939Z,4.6
2023-02-24T05:00:26.094Z,4.6
2023-02-24T05:01:26.252Z,4.6
2023-02-24T05:02:26.404Z,4.6
2023-02-24T05:03:26.613Z,4.6
2023-02-24T05:04:26.957Z,4.6
2023-02-24T05:05:27.166Z,4.6
2023-02-24T05:06:27.333Z,4.6
2023-02-24T05:07:27.515Z,4.6
2023-02-24T05:08:27.667Z,4.6
2023-02-24T05:09:27.830Z,4.6
2023-02-24T05:10:28.354Z,4.6
2023-02-24T05:11:28.503Z,4.6
2023-02-24T05:12:28.655Z,4.6
2023-02-24T05:13:28.819Z,4.6
2023-02-24T05:14:28.995Z,4.6
2023-02-24T05:15:29.159Z,4.6
2023-02-24T05:16:29.500Z,4.6
2023-02-24T05:17:29.756Z,4.6
2023-02-24T05:18:29.942Z,4.6
2023-02-24T05:19:30.124Z,4.6
2023-02-24T05:20:30.285Z,4.6
2023-02-24T05:21:30.447Z,4.6
2023-02-24T05:22:30.602Z,4.6
2023-02-24T05:23:30.754Z,4.6
2023-02-24T05:24:30.919Z,4.6
2023-02-24T05:25:31.124Z,4.6
2023-02-24T05:26:31.269Z,4.6
2023-02-24T05:27:31.423Z,4.5
2023-02-24T05:28:31.635Z,4.5
2023-02-24T05:29:31.835Z,4.5
2023-02-24T05:30:32.092Z,4.5
2023-02-24T05:31:32.540Z,4.5
2023-02-24T05:32:32.994Z,4.5
2023-02-24T05:33:33.415Z,4.5
2023-02-24T05:34:33.563Z,4.5
2023-02-24T05:35:33.729Z,4.5
2023-02-24T05:36:33.928Z,4.5
2023-02-24T05:37:34.090Z,4.6
2023-02-24T05:38:34.253Z,4.6
2023-02-24T05:39:34.410Z,4.6
2023-02-24T05:40:34.583Z,4.6
2023-02-24T05:41:34.743Z,4.6
2023-02-24T05:42:34.905Z,4.6
2023-02-24T05:43:35.076Z,4.6
2023-02-24T05:44:35.226Z,4.6
2023-02-24T05:45:35.399Z,4.6
2023-02-24T05:46:35.623Z,4.6
2023-02-24T05:47:35.880Z,4.6
2023-02-24T05:48:36.074Z,4.6
2023-02-24T05:49:36.299Z,4.6
2023-02-24T05:50:36.446Z,4.6
2023-02-24T05:51:36.606Z,4.6
2023-02-24T05:52:36.789Z,4.6
2023-02-24T05:53:36.937Z,4.6
2023-02-24T05:54:37.220Z,4.6
2023-02-24T05:55:37.556Z,4.6
2023-02-24T05:56:37.744Z,4.6
2023-02-24T05:57:37.897Z,4.69
2023-02-24T05:58:38.079Z,4.69
2023-02-24T05:59:38.249Z,4.69
2023-02-24T06:00:38.417Z,4.69
2023-02-24T06:01:38.638Z,4.69
2023-02-24T06:02:39.022Z,4.69
2023-02-24T06:03:39.248Z,4.69
2023-02-24T06:04:39.894Z,4.69
2023-02-24T06:05:40.076Z,4.69
2023-02-24T06:06:40.248Z,4.69
2023-02-24T06:07:40.394Z,4.8
2023-02-24T06:08:40.542Z,4.8
2023-02-24T06:09:40.709Z,4.8
2023-02-24T06:10:40.855Z,4.8
2023-02-24T06:11:41.208Z,4.8
2023-02-24T06:12:41.540Z,4.8
2023-02-24T06:13:42.191Z,4.8
2023-02-24T06:14:42.850Z,4.8
2023-02-24T06:15:43.024Z,4.8
2023-02-24T06:16:43.423Z,4.8
2023-02-24T06:17:43.843Z,4.8
2023-02-24T06:18:44.020Z,4.8
2023-02-24T06:19:44.173Z,4.8
2023-02-24T06:20:44.320Z,4.8
2023-02-24T06:21:44.466Z,4.8
2023-02-24T06:22:44.613Z,4.8
2023-02-24T06:23:44.757Z,4.8
2023-02-24T06:24:44.934Z,4.8
2023-02-24T06:25:45.088Z,4.8
2023-02-24T06:26:45.239Z,4.8
2023-02-24T06:27:45.428Z,5
2023-02-24T06:28:45.690Z,5
2023-02-24T06:29:46.162Z,5
2023-02-24T06:30:46.494Z,5
2023-02-24T06:31:47.063Z,5
2023-02-24T06:32:47.740Z,5
2023-02-24T06:33:48.061Z,5
2023-02-24T06:34:48.229Z,5
2023-02-24T06:35:48.398Z,5
2023-02-24T06:36:48.543Z,5
2023-02-24T06:37:48.697Z,5
2023-02-24T06:38:48.856Z,5
2023-02-24T06:39:49.025Z,5
2023-02-24T06:40:49.176Z,5
2023-02-24T06:41:49.324Z,5
2023-02-24T06:42:49.522Z,5
2023-02-24T06:43:49.709Z,5
2023-02-24T06:44:49.894Z,5
2023-02-24T06:45:50.169Z,5
2023-02-24T06:46:50.522Z,5
2023-02-24T06:47:50.693Z,4.9
2023-02-24T06:48:50.931Z,4.9
2023-02-24T06:49:51.119Z,4.9
2023-02-24T06:50:51.287Z,4.9
2023-02-24T06:51:51.471Z,4.9
2023-02-24T06:52:51.633Z,4.9
2023-02-24T06:53:51.779Z,4.9
2023-02-24T06:54:51.975Z,4.9
2023-02-24T06:55:52.154Z,4.9
2023-02-24T06:56:52.347Z,4.9
2023-02-24T06:57:52.521Z,4.9
2023-02-24T06:58:52.682Z,4.9
2023-02-24T06:59:52.847Z,4.9
2023-02-24T07:00:53.235Z,4.9
2023-02-24T07:01:53.458Z,4.9
2023-02-24T07:02:53.599Z,4.9
2023-02-24T07:03:53.795Z,4.9
2023-02-24T07:04:54.001Z,4.9
2023-02-24T07:05:54.482Z,4.9
2023-02-24T07:06:54.753Z,4.9
2023-02-24T07:07:54.907Z,5
2023-02-24T07:08:55.066Z,5
2023-02-24T07:09:55.225Z,5
2023-02-24T07:10:55.368Z,5
2023-02-24T07:11:55.535Z,5
2023-02-24T07:12:55.692Z,5
2023-02-24T07:13:55.854Z,5
2023-02-24T07:14:56.047Z,5
2023-02-24T07:15:56.238Z,5
2023-02-24T07:16:56.494Z,5
2023-02-24T07:17:56.728Z,5.1
2023-02-24T07:18:57.006Z,5.1
2023-02-24T07:19:57.177Z,5.1
2023-02-24T07:20:57.343Z,5.1
2023-02-24T07:21:57.495Z,5.1
2023-02-24T07:22:57.641Z,5.1
2023-02-24T07:23:59.713Z,5.1
2023-02-24T07:25:00.042Z,5.1
2023-02-24T07:26:00.224Z,5.1
2023-02-24T07:27:00.381Z,5.1
2023-02-24T07:28:00.531Z,5.1
2023-02-24T07:29:00.769Z,5.1
2023-02-24T07:30:00.927Z,5.1
2023-02-24T07:31:01.433Z,5.1
2023-02-24T07:32:02.310Z,5.1
2023-02-24T07:33:02.747Z,5.1
2023-02-24T07:34:02.907Z,5.1
2023-02-24T07:35:03.051Z,5.1
2023-02-24T07:36:03.198Z,5.1
2023-02-24T07:37:03.336Z,5.1
2023-02-24T07:38:03.523Z,5.2
2023-02-24T07:39:03.667Z,5.2
2023-02-24T07:40:03.824Z,5.2
2023-02-24T07:41:03.977Z,5.2
2023-02-24T07:42:04.177Z,5.2
2023-02-24T07:43:04.340Z,5.2
2023-02-24T07:44:04.492Z,5.2
2023-02-24T07:45:04.737Z,5.2
2023-02-24T07:46:05.134Z,5.2
2023-02-24T07:47:05.373Z,5.2
2023-02-24T07:48:05.561Z,5.4
2023-02-24T07:49:05.739Z,5.4
2023-02-24T07:50:05.915Z,5.4
2023-02-24T07:51:06.131Z,5.4
2023-02-24T07:52:06.276Z,5.4
2023-02-24T07:53:06.494Z,5.4
2023-02-24T07:54:06.678Z,5.4
2023-02-24T07:55:06.881Z,5.4
2023-02-24T07:56:07.186Z,5.4
2023-02-24T07:57:07.348Z,5.6
2023-02-24T07:58:07.581Z,5.6
2023-02-24T07:59:07.741Z,5.6
2023-02-24T08:00:10.150Z,5.6
2023-02-24T08:01:14.619Z,5.7
2023-02-24T08:02:14.974Z,5.7
2023-02-24T08:03:15.184Z,5.7
2023-02-24T08:04:15.332Z,5.7
2023-02-24T08:05:15.622Z,5.7
2023-02-24T08:06:15.900Z,5.7
2023-02-24T08:07:16.136Z,5.9
2023-02-24T08:08:16.315Z,5.9
2023-02-24T08:09:16.483Z,5.9
2023-02-24T08:10:16.662Z,5.9
2023-02-24T08:11:16.830Z,5.9
2023-02-24T08:12:17.001Z,5.9
2023-02-24T08:13:17.240Z,5.9
2023-02-24T08:14:17.382Z,5.9
2023-02-24T08:15:17.835Z,5.9
2023-02-24T08:16:18.107Z,5.9
2023-02-24T08:17:18.361Z,6.3
2023-02-24T08:18:18.524Z,6.3
2023-02-24T08:19:18.680Z,6.3
2023-02-24T08:20:18.863Z,6.3
2023-02-24T08:21:19.818Z,6.3
2023-02-24T08:22:20.603Z,6.3
2023-02-24T08:23:20.781Z,6.3
2023-02-24T08:24:20.932Z,6.3
2023-02-24T08:25:21.081Z,6.3
2023-02-24T08:26:21.326Z,6.3
2023-02-24T08:27:21.616Z,6.8
2023-02-24T08:28:21.765Z,6.8
2023-02-24T08:29:21.918Z,6.8
2023-02-24T08:30:22.113Z,6.8
2023-02-24T08:31:23.421Z,6.8
2023-02-24T08:32:24.760Z,6.8
2023-02-24T08:33:25.162Z,6.8
2023-02-24T08:34:25.339Z,6.8
2023-02-24T08:35:25.494Z,6.8
2023-02-24T08:36:25.656Z,6.8
2023-02-24T08:37:25.802Z,7.4
2023-02-24T08:38:26.702Z,7.4
2023-02-24T08:39:26.857Z,7.4
2023-02-24T08:40:27.088Z,7.4
2023-02-24T08:41:27.245Z,7.4
2023-02-24T08:42:27.397Z,7.4
2023-02-24T08:43:27.696Z,7.4
2023-02-24T08:44:27.943Z,7.4
2023-02-24T08:45:28.230Z,7.4
2023-02-24T08:46:28.576Z,7.4
2023-02-24T08:47:28.785Z,8.3
2023-02-24T08:48:28.941Z,8.3
2023-02-24T08:49:29.109Z,8.3
2023-02-24T08:50:29.266Z,8.3
2023-02-24T08:51:29.452Z,8.3
2023-02-24T08:52:32.452Z,8.3
2023-02-24T08:53:32.662Z,8.3
2023-02-24T08:54:32.816Z,8.3
2023-02-24T08:55:33.087Z,8.3
2023-02-24T08:56:33.289Z,9.3
2023-02-24T08:57:33.560Z,9.3
2023-02-24T08:58:33.719Z,9.3
2023-02-24T08:59:33.882Z,9.3
2023-02-24T09:00:34.120Z,9.3
2023-02-24T09:01:34.530Z,9.3
2023-02-24T09:02:35.208Z,9.3
2023-02-24T09:03:35.368Z,9.3
2023-02-24T09:04:35.608Z,9.3
2023-02-24T09:05:35.825Z,10.3
2023-02-24T09:06:35.983Z,10.3
2023-02-24T09:07:36.177Z,10.3
2023-02-24T09:08:36.346Z,10.3
2023-02-24T09:09:36.514Z,10.3
2023-02-24T09:10:39.926Z,10.3
2023-02-24T09:11:40.151Z,10.9
2023-02-24T09:12:40.321Z,10.9
2023-02-24T09:13:40.517Z,10.9
2023-02-24T09:14:40.688Z,11.3
2023-02-24T09:15:40.861Z,11.3
2023-02-24T09:16:41.149Z,11.3
2023-02-24T09:17:41.346Z,11.3
2023-02-24T09:18:41.499Z,11.3
2023-02-24T09:19:41.649Z,11.3
2023-02-24T09:20:41.859Z,11.3
2023-02-24T09:21:42.036Z,11.3
2023-02-24T09:22:42.233Z,11.3
2023-02-24T09:23:42.624Z,11.3
2023-02-24T09:24:42.848Z,12.2
2023-02-24T09:25:43.036Z,12.2
2023-02-24T09:26:43.517Z,12.2
2023-02-24T09:27:43.694Z,12.2
2023-02-24T09:28:44.026Z,12.2
2023-02-24T09:29:44.345Z,12.2
2023-02-24T09:30:44.635Z,12.2
2023-02-24T09:31:45.264Z,12.2
2023-02-24T09:32:46.123Z,12.2
2023-02-24T09:33:46.552Z,12.2
2023-02-24T09:34:46.700Z,13.1
2023-02-24T09:35:46.868Z,13.1
2023-02-24T09:36:47.037Z,13.1
2023-02-24T09:37:47.183Z,13.1
2023-02-24T09:38:47.349Z,13.1
2023-02-24T09:39:47.524Z,13.1
2023-02-24T09:40:47.673Z,13.1
2023-02-24T09:41:47.837Z,13.1
2023-02-24T09:42:48.005Z,13.1
2023-02-24T09:43:48.188Z,13.1
2023-02-24T09:44:48.371Z,13.9
2023-02-24T09:45:48.769Z,13.9
2023-02-24T09:46:49.138Z,13.9
2023-02-24T09:47:49.406Z,13.9
2023-02-24T09:48:49.578Z,13.9
2023-02-24T09:49:49.746Z,13.9
2023-02-24T09:51:04.971Z,13.9
2023-02-24T09:52:05.823Z,14.4
2023-02-24T09:53:11.584Z,14.4
2023-02-24T09:54:11.825Z,14.6
2023-02-24T09:55:11.984Z,14.7
2023-02-24T09:56:12.162Z,14.7
2023-02-24T09:57:12.428Z,14.7
2023-02-24T09:58:12.689Z,14.7
2023-02-24T09:59:12.937Z,14.7
2023-02-24T10:00:13.116Z,14.7
2023-02-24T10:01:13.407Z,14.7
2023-02-24T10:02:13.879Z,14.7
2023-02-24T10:03:14.177Z,14.7
2023-02-24T10:04:21.642Z,14.7
2023-02-24T10:05:22.075Z,15.4
2023-02-24T10:06:22.237Z,15.4
2023-02-24T10:07:22.397Z,15.4
2023-02-24T10:08:22.556Z,15.4
2023-02-24T10:09:22.713Z,15.4
2023-02-24T10:10:22.908Z,15.4
2023-02-24T10:11:23.659Z,15.4
2023-02-24T10:12:24.186Z,15.4
2023-02-24T10:13:24.350Z,15.4
2023-02-24T10:14:31.868Z,15.4
2023-02-24T10:15:43.226Z,16.2
2023-02-24T10:16:43.528Z,16.2
2023-02-24T10:17:43.809Z,16.2
2023-02-24T10:18:43.977Z,16.2
2023-02-24T10:19:44.154Z,16.2
2023-02-24T10:20:44.423Z,16.2
2023-02-24T10:21:44.645Z,16.2
2023-02-24T10:22:44.794Z,16.2
2023-02-24T10:23:44.961Z,16.2
2023-02-24T10:24:45.179Z,16.9
2023-02-24T10:25:45.342Z,16.9
2023-02-24T10:27:01.358Z,16.9
2023-02-24T10:28:08.975Z,17.1
2023-02-24T10:29:09.330Z,17.1
2023-02-24T10:30:09.483Z,17.1
2023-02-24T10:31:09.868Z,17.1
2023-02-24T10:32:11.371Z,17.1
2023-02-24T10:33:11.967Z,17.1
2023-02-24T10:34:12.126Z,17.1
2023-02-24T10:35:12.291Z,17.6
2023-02-24T10:36:12.624Z,17.6
2023-02-24T10:37:28.904Z,17.6
2023-02-24T10:38:29.872Z,17.79
2023-02-24T10:39:30.032Z,17.79
2023-02-24T10:40:30.200Z,17.79
2023-02-24T10:41:30.364Z,17.79
2023-02-24T10:42:30.614Z,17.79
2023-02-24T10:43:30.863Z,17.79
2023-02-24T10:44:31.102Z,17.79
2023-02-24T10:45:35.167Z,18.29
2023-02-24T10:46:43.216Z,18.4
2023-02-24T10:47:43.996Z,18.4
2023-02-24T10:48:44.154Z,18.4
2023-02-24T10:49:44.307Z,18.4
2023-02-24T10:50:56.396Z,18.4
2023-02-24T10:51:56.719Z,18.79
2023-02-24T10:52:56.897Z,18.79
2023-02-24T10:53:57.060Z,18.79
2023-02-24T10:54:57.216Z,19
2023-02-24T10:55:57.372Z,19
2023-02-24T10:56:57.541Z,19
2023-02-24T10:57:59.587Z,19
2023-02-24T10:59:01.877Z,19
2023-02-24T11:00:02.071Z,19
2023-02-24T11:01:02.342Z,19
2023-02-24T11:02:02.582Z,19
2023-02-24T11:03:02.759Z,19
2023-02-24T11:04:02.931Z,19
2023-02-24T11:05:03.107Z,19.7
2023-02-24T11:06:03.344Z,19.7
2023-02-24T11:07:03.707Z,19.7
2023-02-24T11:08:03.853Z,19.7
2023-02-24T11:09:04.005Z,19.7
2023-02-24T11:10:04.164Z,19.7
2023-02-24T11:11:04.348Z,19.7
2023-02-24T11:12:04.520Z,19.7
2023-02-24T11:13:10.685Z,19.7
2023-02-24T11:14:10.883Z,20.2
2023-02-24T11:15:11.066Z,20.29
2023-02-24T11:16:11.430Z,20.29
2023-02-24T11:17:11.666Z,20.29
2023-02-24T11:18:11.861Z,20.29
2023-02-24T11:19:12.039Z,20.29
2023-02-24T11:20:12.197Z,20.29
2023-02-24T11:21:12.392Z,20.29
2023-02-24T11:22:12.559Z,20.29
2023-02-24T11:23:12.711Z,20.29
2023-02-24T11:24:12.882Z,20.29
2023-02-24T11:25:13.042Z,21
2023-02-24T11:26:13.212Z,21
2023-02-24T11:27:13.366Z,21
2023-02-24T11:28:13.525Z,21
2023-02-24T11:29:13.717Z,21
2023-02-24T11:30:13.858Z,21
2023-02-24T11:31:14.346Z,21
2023-02-24T11:32:15.811Z,21
2023-02-24T11:33:16.106Z,21
2023-02-24T11:34:16.454Z,21
2023-02-24T11:35:16.613Z,21.7
2023-02-24T11:36:16.765Z,21.7
2023-02-24T11:37:16.936Z,21.7
2023-02-24T11:38:17.092Z,21.7
2023-02-24T11:39:21.824Z,21.7
2023-02-24T11:40:22.018Z,22
2023-02-24T11:41:23.068Z,22
2023-02-24T11:42:24.244Z,22
2023-02-24T11:43:24.409Z,22
2023-02-24T11:44:24.562Z,22
2023-02-24T11:45:24.747Z,22.3
2023-02-24T11:46:25.056Z,22.3
2023-02-24T11:47:25.274Z,22.3
2023-02-24T11:48:25.443Z,22.3
2023-02-24T11:49:25.612Z,22.3
2023-02-24T11:50:25.776Z,22.3
2023-02-24T11:51:25.980Z,22.3
2023-02-24T11:52:26.179Z,22.3
2023-02-24T11:53:26.330Z,22.3
2023-02-24T11:54:26.511Z,22.3
2023-02-24T11:55:28.286Z,23.1
2023-02-24T11:56:28.484Z,23.1
2023-02-24T11:57:29.217Z,23.1
2023-02-24T11:58:29.366Z,23.1
2023-02-24T11:59:29.524Z,23.1
2023-02-24T12:00:29.692Z,23.1
2023-02-24T12:01:30.241Z,23.1
2023-02-24T12:02:30.482Z,23.1
2023-02-24T12:03:30.694Z,23.1
2023-02-24T12:04:30.932Z,23.1
2023-02-24T12:05:31.149Z,23.9
2023-02-24T12:06:31.396Z,23.9
2023-02-24T12:07:31.554Z,23.9
2023-02-24T12:08:31.717Z,23.9
2023-02-24T12:09:31.890Z,23.9
2023-02-24T12:10:32.062Z,23.9
2023-02-24T12:11:32.244Z,23.9
2023-02-24T12:12:32.416Z,23.9
2023-02-24T12:13:32.574Z,23.9
2023-02-24T12:14:32.746Z,23.9
2023-02-24T12:15:32.899Z,24.7
2023-02-24T12:16:33.232Z,24.7
2023-02-24T12:17:33.906Z,24.7
2023-02-24T12:18:34.301Z,24.7
2023-02-24T12:19:34.531Z,24.7
2023-02-24T12:20:34.673Z,24.7
2023-02-24T12:21:34.871Z,24.7
2023-02-24T12:22:35.041Z,24.7
2023-02-24T12:23:35.198Z,24.7
2023-02-24T12:24:35.363Z,25.4
2023-02-24T12:25:35.546Z,25.4
2023-02-24T12:26:35.702Z,25.4
2023-02-24T12:27:35.854Z,25.4
2023-02-24T12:28:36.011Z,25.4
2023-02-24T12:29:36.171Z,25.4
2023-02-24T12:30:39.242Z,25.4
2023-02-24T12:31:39.838Z,25.4
2023-02-24T12:32:40.450Z,25.4
2023-02-24T12:33:40.878Z,25.4
2023-02-24T12:34:41.020Z,26.1
2023-02-24T12:35:41.171Z,26.1
2023-02-24T12:36:41.328Z,26.1
2023-02-24T12:37:41.491Z,26.1
2023-02-24T12:38:41.681Z,26.1
2023-02-24T12:39:41.856Z,26.1
2023-02-24T12:40:42.040Z,26.1
2023-02-24T12:41:42.279Z,26.1
2023-02-24T12:42:42.445Z,26.1
2023-02-24T12:43:42.631Z,26.1
2023-02-24T12:44:42.823Z,26.5
2023-02-24T12:45:43.201Z,26.5
2023-02-24T12:46:43.482Z,26.5
2023-02-24T12:47:43.654Z,26.5
2023-02-24T12:48:43.808Z,26.5
2023-02-24T12:49:43.987Z,26.5
2023-02-24T12:50:44.164Z,26.5
2023-02-24T12:51:44.432Z,26.5
2023-02-24T12:52:44.624Z,26.5
2023-02-24T12:53:44.795Z,26.5
2023-02-24T12:54:44.953Z,27
2023-02-24T12:55:45.109Z,27
2023-02-24T12:56:45.281Z,27
2023-02-24T12:57:45.450Z,27
2023-02-24T12:58:45.724Z,27
2023-02-24T12:59:46.005Z,27
2023-02-24T13:00:46.264Z,27
2023-02-24T13:01:46.474Z,27
2023-02-24T13:02:46.641Z,27
2023-02-24T13:03:46.799Z,27
2023-02-24T13:04:46.968Z,27.2
2023-02-24T13:05:47.129Z,27.2
2023-02-24T13:06:47.286Z,27.2
2023-02-24T13:07:47.483Z,27.2
2023-02-24T13:08:47.657Z,27.2
2023-02-24T13:09:47.823Z,27.2
2023-02-24T13:10:47.992Z,27.2
2023-02-24T13:11:48.161Z,27.2
2023-02-24T13:12:48.317Z,27.2
2023-02-24T13:13:48.481Z,27.2
2023-02-24T13:14:48.709Z,27.1
2023-02-24T13:15:49.006Z,27.1
2023-02-24T13:16:49.383Z,27.1
2023-02-24T13:17:49.707Z,27.1
2023-02-24T13:18:49.861Z,27.1
2023-02-24T13:19:50.014Z,27.1
2023-02-24T13:20:50.318Z,27.1
2023-02-24T13:21:50.538Z,27.1
2023-02-24T13:22:50.688Z,27.1
2023-02-24T13:23:50.883Z,27.1
2023-02-24T13:24:51.099Z,26.8
2023-02-24T13:25:51.265Z,26.8
2023-02-24T13:26:51.429Z,26.8
2023-02-24T13:27:51.621Z,26.8
2023-02-24T13:28:51.754Z,26.8
2023-02-24T13:29:51.913Z,26.8
2023-02-24T13:30:52.181Z,26.8
2023-02-24T13:31:52.638Z,26.8
2023-02-24T13:32:53.266Z,26.8
2023-02-24T13:33:53.466Z,26.8
2023-02-24T13:34:53.615Z,26.2
2023-02-24T13:35:57.397Z,26.2
2023-02-24T13:36:57.713Z,26.1
2023-02-24T13:37:57.929Z,26.1
2023-02-24T13:38:58.101Z,26.1
2023-02-24T13:39:58.258Z,26.1
2023-02-24T13:40:58.430Z,26.1
2023-02-24T13:41:58.577Z,26.1
2023-02-24T13:42:58.761Z,26.1
2023-02-24T13:43:59.019Z,26.1
2023-02-24T13:44:59.187Z,25.8
2023-02-24T13:45:59.511Z,25.8